sensor_id;sensor_type;location;lat;lon;timestamp;pressure;altitude;pressure_sealevel;temperature;humidity
24752;BME280;27246;52.376;4.628;2022-08-18T00:01:08;101226.38;;;19.06;92.65
24752;BME280;27246;52.376;4.628;2022-08-18T00:06:14;101225.59;;;18.98;92.60
24752;BME280;27246;52.376;4.628;2022-08-18T00:11:16;101218.78;;;18.94;93.03
24752;BME280;27246;52.376;4.628;2022-08-18T00:16:18;101228.38;;;18.98;92.96
24752;BME280;27246;52.376;4.628;2022-08-18T00:21:19;101238.44;;;18.99;92.70
24752;BME280;27246;52.376;4.628;2022-08-18T00:26:21;101233.97;;;18.98;92.83
24752;BME280;27246;52.376;4.628;2022-08-18T00:31:22;101233.75;;;19.00;92.11
24752;BME280;27246;52.376;4.628;2022-08-18T00:36:25;101239.31;;;19.00;93.10
24752;BME280;27246;52.376;4.628;2022-08-18T00:41:28;101239.38;;;18.93;94.27
24752;BME280;27246;52.376;4.628;2022-08-18T00:46:32;101229.53;;;18.91;94.72
24752;BME280;27246;52.376;4.628;2022-08-18T00:56:43;101225.28;;;18.88;93.18
24752;BME280;27246;52.376;4.628;2022-08-18T01:01:48;101207.44;;;18.89;92.71
24752;BME280;27246;52.376;4.628;2022-08-18T01:07:08;101209.59;;;18.87;92.65
24752;BME280;27246;52.376;4.628;2022-08-18T01:12:11;101208.22;;;18.78;91.59
24752;BME280;27246;52.376;4.628;2022-08-18T01:17:33;101205.19;;;18.80;91.15
24752;BME280;27246;52.376;4.628;2022-08-18T01:23:10;101206.88;;;18.81;91.30
24752;BME280;27246;52.376;4.628;2022-08-18T01:28:13;101195.31;;;18.77;91.60
24752;BME280;27246;52.376;4.628;2022-08-18T01:33:18;101209.53;;;18.69;91.24
24752;BME280;27246;52.376;4.628;2022-08-18T01:38:20;101213.63;;;18.73;91.70
24752;BME280;27246;52.376;4.628;2022-08-18T01:43:23;101216.03;;;18.63;92.92
24752;BME280;27246;52.376;4.628;2022-08-18T01:48:26;101221.19;;;18.66;93.28
24752;BME280;27246;52.376;4.628;2022-08-18T01:53:28;101212.63;;;18.61;93.35
24752;BME280;27246;52.376;4.628;2022-08-18T01:58:34;101197.63;;;18.62;93.58
24752;BME280;27246;52.376;4.628;2022-08-18T02:03:41;101199.31;;;18.63;93.55
24752;BME280;27246;52.376;4.628;2022-08-18T02:08:44;101187.28;;;18.62;93.34
24752;BME280;27246;52.376;4.628;2022-08-18T02:13:53;101182.56;;;18.63;93.34
24752;BME280;27246;52.376;4.628;2022-08-18T02:18:55;101198.06;;;18.58;93.81
24752;BME280;27246;52.376;4.628;2022-08-18T02:23:57;101218.66;;;18.39;94.02
24752;BME280;27246;52.376;4.628;2022-08-18T02:29:06;101218.06;;;18.30;94.87
24752;BME280;27246;52.376;4.628;2022-08-18T02:34:35;101224.13;;;18.21;94.89
24752;BME280;27246;52.376;4.628;2022-08-18T02:39:36;101229.34;;;18.17;95.01
24752;BME280;27246;52.376;4.628;2022-08-18T02:44:38;101236.38;;;18.19;95.60
24752;BME280;27246;52.376;4.628;2022-08-18T02:49:40;101237.91;;;18.15;95.63
24752;BME280;27246;52.376;4.628;2022-08-18T02:54:42;101255.06;;;18.19;95.91
24752;BME280;27246;52.376;4.628;2022-08-18T02:59:44;101239.81;;;18.22;96.16
24752;BME280;27246;52.376;4.628;2022-08-18T03:04:48;101245.19;;;18.16;96.53
24752;BME280;27246;52.376;4.628;2022-08-18T03:09:51;101246.84;;;18.24;96.75
24752;BME280;27246;52.376;4.628;2022-08-18T03:14:53;101250.66;;;18.30;97.02
24752;BME280;27246;52.376;4.628;2022-08-18T03:19:55;101250.47;;;18.31;96.99
24752;BME280;27246;52.376;4.628;2022-08-18T03:24:58;101258.84;;;18.25;97.05
24752;BME280;27246;52.376;4.628;2022-08-18T03:29:59;101260.63;;;18.19;97.84
24752;BME280;27246;52.376;4.628;2022-08-18T03:35:03;101253.28;;;18.25;98.16
24752;BME280;27246;52.376;4.628;2022-08-18T03:40:05;101251.38;;;18.25;98.21
24752;BME280;27246;52.376;4.628;2022-08-18T03:45:07;101256.25;;;18.30;98.51
24752;BME280;27246;52.376;4.628;2022-08-18T03:50:18;101251.50;;;18.37;97.88
24752;BME280;27246;52.376;4.628;2022-08-18T03:55:20;101252.38;;;18.31;98.09
24752;BME280;27246;52.376;4.628;2022-08-18T04:00:22;101248.44;;;18.38;98.63
24752;BME280;27246;52.376;4.628;2022-08-18T04:05:25;101247.59;;;18.38;98.63
24752;BME280;27246;52.376;4.628;2022-08-18T04:10:27;101245.66;;;18.38;99.47
24752;BME280;27246;52.376;4.628;2022-08-18T04:15:28;101248.84;;;18.42;99.28
24752;BME280;27246;52.376;4.628;2022-08-18T04:20:31;101245.94;;;18.30;98.93
24752;BME280;27246;52.376;4.628;2022-08-18T04:25:35;101253.91;;;18.27;99.94
24752;BME280;27246;52.376;4.628;2022-08-18T04:30:37;101252.00;;;18.21;100.00
24752;BME280;27246;52.376;4.628;2022-08-18T04:35:39;101252.44;;;18.24;100.00
24752;BME280;27246;52.376;4.628;2022-08-18T04:40:41;101238.41;;;18.31;100.00
24752;BME280;27246;52.376;4.628;2022-08-18T04:45:44;101240.56;;;18.35;100.00
24752;BME280;27246;52.376;4.628;2022-08-18T04:50:47;101245.44;;;18.40;100.00
24752;BME280;27246;52.376;4.628;2022-08-18T04:55:50;101250.59;;;18.43;100.00
24752;BME280;27246;52.376;4.628;2022-08-18T05:00:59;101244.53;;;18.46;99.78
24752;BME280;27246;52.376;4.628;2022-08-18T05:06:03;101240.69;;;18.47;100.00
24752;BME280;27246;52.376;4.628;2022-08-18T05:11:05;101240.06;;;18.45;99.97
24752;BME280;27246;52.376;4.628;2022-08-18T05:16:07;101242.84;;;18.45;100.00
24752;BME280;27246;52.376;4.628;2022-08-18T05:21:20;101244.31;;;18.48;100.00
24752;BME280;27246;52.376;4.628;2022-08-18T05:26:25;101245.09;;;18.55;100.00
24752;BME280;27246;52.376;4.628;2022-08-18T05:31:28;101235.44;;;18.57;100.00
24752;BME280;27246;52.376;4.628;2022-08-18T05:36:45;101242.69;;;18.58;100.00
24752;BME280;27246;52.376;4.628;2022-08-18T05:42:10;101247.16;;;18.66;100.00
24752;BME280;27246;52.376;4.628;2022-08-18T05:47:13;101252.06;;;18.71;100.00
24752;BME280;27246;52.376;4.628;2022-08-18T05:52:22;101248.13;;;18.78;100.00
24752;BME280;27246;52.376;4.628;2022-08-18T05:57:30;101259.69;;;18.82;100.00
24752;BME280;27246;52.376;4.628;2022-08-18T06:07:48;101250.41;;;19.07;100.00
24752;BME280;27246;52.376;4.628;2022-08-18T06:12:55;101254.44;;;19.11;98.44
24752;BME280;27246;52.376;4.628;2022-08-18T06:29:00;101250.19;;;19.27;96.34
24752;BME280;27246;52.376;4.628;2022-08-18T06:34:20;101252.59;;;19.42;95.28
24752;BME280;27246;52.376;4.628;2022-08-18T06:39:34;101261.88;;;19.54;93.93
24752;BME280;27246;52.376;4.628;2022-08-18T06:44:44;101262.38;;;19.51;94.69
24752;BME280;27246;52.376;4.628;2022-08-18T06:50:15;101275.63;;;19.55;93.55
24752;BME280;27246;52.376;4.628;2022-08-18T06:55:44;101274.78;;;19.55;94.04
24752;BME280;27246;52.376;4.628;2022-08-18T07:06:01;101277.19;;;19.70;92.95
24752;BME280;27246;52.376;4.628;2022-08-18T07:21:43;101292.19;;;19.75;88.86
24752;BME280;27246;52.376;4.628;2022-08-18T07:27:05;101293.25;;;19.93;87.94
24752;BME280;27246;52.376;4.628;2022-08-18T07:32:16;101296.16;;;19.98;87.47
24752;BME280;27246;52.376;4.628;2022-08-18T07:37:47;101294.88;;;20.12;86.66
24752;BME280;27246;52.376;4.628;2022-08-18T07:43:20;101298.72;;;20.30;84.84
24752;BME280;27246;52.376;4.628;2022-08-18T07:48:29;101295.75;;;20.43;84.14
24752;BME280;27246;52.376;4.628;2022-08-18T07:59:34;101306.88;;;20.62;84.32
24752;BME280;27246;52.376;4.628;2022-08-18T08:04:52;101311.97;;;20.65;84.13
24752;BME280;27246;52.376;4.628;2022-08-18T08:10:20;101319.66;;;20.69;84.53
24752;BME280;27246;52.376;4.628;2022-08-18T08:15:44;101330.25;;;20.79;83.14
24752;BME280;27246;52.376;4.628;2022-08-18T08:20:55;101321.84;;;20.79;81.01
24752;BME280;27246;52.376;4.628;2022-08-18T08:31:30;101323.81;;;20.78;82.61
24752;BME280;27246;52.376;4.628;2022-08-18T08:36:40;101339.38;;;20.74;80.96
24752;BME280;27246;52.376;4.628;2022-08-18T08:42:16;101331.22;;;20.73;81.75
24752;BME280;27246;52.376;4.628;2022-08-18T08:53:22;101324.66;;;20.91;80.59
24752;BME280;27246;52.376;4.628;2022-08-18T08:58:37;101324.78;;;21.20;79.67
24752;BME280;27246;52.376;4.628;2022-08-18T09:03:45;101324.78;;;21.20;77.83
24752;BME280;27246;52.376;4.628;2022-08-18T09:09:02;101327.47;;;21.14;79.39
24752;BME280;27246;52.376;4.628;2022-08-18T09:25:30;101325.00;;;22.17;75.61
24752;BME280;27246;52.376;4.628;2022-08-18T09:30:41;101315.28;;;22.37;72.35
24752;BME280;27246;52.376;4.628;2022-08-18T10:08:52;101326.63;;;22.93;67.27
24752;BME280;27246;52.376;4.628;2022-08-18T10:53:54;101320.94;;;22.25;77.48
24752;BME280;27246;52.376;4.628;2022-08-18T11:31:09;101304.41;;;22.29;68.35
24752;BME280;27246;52.376;4.628;2022-08-18T11:36:14;101294.59;;;22.60;68.43
24752;BME280;27246;52.376;4.628;2022-08-18T11:41:19;101294.41;;;23.34;67.92
24752;BME280;27246;52.376;4.628;2022-08-18T11:52:22;101287.81;;;23.90;60.84
24752;BME280;27246;52.376;4.628;2022-08-18T12:03:40;101288.69;;;24.45;58.54
24752;BME280;27246;52.376;4.628;2022-08-18T12:08:51;101285.00;;;24.39;58.40
24752;BME280;27246;52.376;4.628;2022-08-18T12:14:09;101274.84;;;24.38;61.60
24752;BME280;27246;52.376;4.628;2022-08-18T12:19:34;101272.03;;;24.70;58.95
24752;BME280;27246;52.376;4.628;2022-08-18T12:24:38;101270.13;;;24.49;57.94
24752;BME280;27246;52.376;4.628;2022-08-18T12:29:41;101258.72;;;24.06;62.34
24752;BME280;27246;52.376;4.628;2022-08-18T12:34:44;101243.44;;;23.97;62.56
